sensor_id;sensor_type;location;lat;lon;timestamp;P1;durP1;ratioP1;P2;durP2;ratioP2
64543;SDS011;50936;51.660;5.616;2023-02-08T00:00:57;23.50;;;10.88;;
64543;SDS011;50936;51.660;5.616;2023-02-08T00:03:24;21.35;;;11.38;;
64543;SDS011;50936;51.660;5.616;2023-02-08T00:05:54;22.33;;;10.55;;
64543;SDS011;50936;51.660;5.616;2023-02-08T00:08:21;25.30;;;10.82;;
64543;SDS011;50936;51.660;5.616;2023-02-08T00:10:48;23.02;;;9.75;;
64543;SDS011;50936;51.660;5.616;2023-02-08T00:13:15;23.52;;;10.27;;
64543;SDS011;50936;51.660;5.616;2023-02-08T00:15:42;24.23;;;10.20;;
64543;SDS011;50936;51.660;5.616;2023-02-08T00:18:12;21.55;;;10.45;;
64543;SDS011;50936;51.660;5.616;2023-02-08T00:20:42;27.63;;;10.90;;
64543;SDS011;50936;51.660;5.616;2023-02-08T00:23:10;21.95;;;10.88;;
64543;SDS011;50936;51.660;5.616;2023-02-08T00:25:40;26.73;;;11.43;;
64543;SDS011;50936;51.660;5.616;2023-02-08T00:28:10;23.20;;;10.98;;
64543;SDS011;50936;51.660;5.616;2023-02-08T00:30:40;23.88;;;10.77;;
64543;SDS011;50936;51.660;5.616;2023-02-08T00:33:09;24.60;;;11.45;;
64543;SDS011;50936;51.660;5.616;2023-02-08T00:35:36;23.27;;;10.52;;
64543;SDS011;50936;51.660;5.616;2023-02-08T00:38:03;22.33;;;10.20;;
64543;SDS011;50936;51.660;5.616;2023-02-08T00:40:30;23.20;;;10.98;;
64543;SDS011;50936;51.660;5.616;2023-02-08T00:42:57;25.15;;;10.73;;
64543;SDS011;50936;51.660;5.616;2023-02-08T00:45:24;24.65;;;10.38;;
64543;SDS011;50936;51.660;5.616;2023-02-08T00:47:51;26.15;;;10.45;;
64543;SDS011;50936;51.660;5.616;2023-02-08T00:50:19;24.25;;;10.95;;
64543;SDS011;50936;51.660;5.616;2023-02-08T00:52:45;24.65;;;10.43;;
64543;SDS011;50936;51.660;5.616;2023-02-08T00:55:12;22.50;;;11.50;;
64543;SDS011;50936;51.660;5.616;2023-02-08T00:57:39;25.63;;;11.48;;
64543;SDS011;50936;51.660;5.616;2023-02-08T01:00:06;23.27;;;10.27;;
64543;SDS011;50936;51.660;5.616;2023-02-08T01:02:36;23.08;;;10.88;;
64543;SDS011;50936;51.660;5.616;2023-02-08T01:05:04;22.75;;;11.13;;
64543;SDS011;50936;51.660;5.616;2023-02-08T01:07:32;21.20;;;10.52;;
64543;SDS011;50936;51.660;5.616;2023-02-08T01:10:00;23.20;;;11.00;;
64543;SDS011;50936;51.660;5.616;2023-02-08T01:12:27;22.88;;;11.77;;
64543;SDS011;50936;51.660;5.616;2023-02-08T01:14:54;27.65;;;11.48;;
64543;SDS011;50936;51.660;5.616;2023-02-08T01:17:21;23.75;;;10.82;;
64543;SDS011;50936;51.660;5.616;2023-02-08T01:19:48;21.48;;;11.13;;
64543;SDS011;50936;51.660;5.616;2023-02-08T01:22:17;22.67;;;11.00;;
64543;SDS011;50936;51.660;5.616;2023-02-08T01:24:43;24.15;;;10.82;;
64543;SDS011;50936;51.660;5.616;2023-02-08T01:27:10;25.60;;;10.52;;
64543;SDS011;50936;51.660;5.616;2023-02-08T01:29:37;23.08;;;9.95;;
64543;SDS011;50936;51.660;5.616;2023-02-08T01:32:05;20.50;;;10.55;;
64543;SDS011;50936;51.660;5.616;2023-02-08T01:34:31;24.50;;;10.70;;
64543;SDS011;50936;51.660;5.616;2023-02-08T01:36:58;21.38;;;10.23;;
64543;SDS011;50936;51.660;5.616;2023-02-08T01:39:25;23.83;;;11.10;;
64543;SDS011;50936;51.660;5.616;2023-02-08T01:41:52;23.63;;;11.55;;
64543;SDS011;50936;51.660;5.616;2023-02-08T01:47:43;23.80;;;10.93;;
64543;SDS011;50936;51.660;5.616;2023-02-08T01:50:14;24.80;;;10.60;;
64543;SDS011;50936;51.660;5.616;2023-02-08T01:52:46;27.05;;;11.10;;
64543;SDS011;50936;51.660;5.616;2023-02-08T01:55:26;23.77;;;10.50;;
64543;SDS011;50936;51.660;5.616;2023-02-08T01:58:00;21.23;;;10.20;;
64543;SDS011;50936;51.660;5.616;2023-02-08T02:00:31;24.98;;;11.02;;
64543;SDS011;50936;51.660;5.616;2023-02-08T02:02:58;24.10;;;10.68;;
64543;SDS011;50936;51.660;5.616;2023-02-08T02:05:29;24.40;;;10.63;;
64543;SDS011;50936;51.660;5.616;2023-02-08T02:08:04;22.75;;;10.15;;
64543;SDS011;50936;51.660;5.616;2023-02-08T02:10:34;23.98;;;10.93;;
64543;SDS011;50936;51.660;5.616;2023-02-08T02:13:05;25.75;;;11.20;;
64543;SDS011;50936;51.660;5.616;2023-02-08T02:15:42;25.63;;;11.00;;
64543;SDS011;50936;51.660;5.616;2023-02-08T02:18:12;25.75;;;10.95;;
64543;SDS011;50936;51.660;5.616;2023-02-08T02:32:44;26.40;;;11.00;;
64543;SDS011;50936;51.660;5.616;2023-02-08T02:35:41;25.55;;;10.80;;
64543;SDS011;50936;51.660;5.616;2023-02-08T02:41:25;22.85;;;11.05;;
64543;SDS011;50936;51.660;5.616;2023-02-08T02:44:23;25.75;;;10.95;;
64543;SDS011;50936;51.660;5.616;2023-02-08T02:47:27;22.60;;;10.27;;
64543;SDS011;50936;51.660;5.616;2023-02-08T02:52:59;25.20;;;11.13;;
64543;SDS011;50936;51.660;5.616;2023-02-08T02:55:39;27.20;;;11.50;;
64543;SDS011;50936;51.660;5.616;2023-02-08T02:58:15;24.83;;;11.52;;
64543;SDS011;50936;51.660;5.616;2023-02-08T03:00:51;23.35;;;10.98;;
64543;SDS011;50936;51.660;5.616;2023-02-08T03:03:25;23.35;;;10.50;;
64543;SDS011;50936;51.660;5.616;2023-02-08T03:05:57;21.55;;;9.93;;
64543;SDS011;50936;51.660;5.616;2023-02-08T03:08:48;23.20;;;11.00;;
64543;SDS011;50936;51.660;5.616;2023-02-08T03:12:21;17.02;;;5.28;;
64543;SDS011;50936;51.660;5.616;2023-02-08T03:21:11;25.77;;;11.93;;
64543;SDS011;50936;51.660;5.616;2023-02-08T03:24:01;22.73;;;10.90;;
64543;SDS011;50936;51.660;5.616;2023-02-08T03:27:05;22.63;;;10.90;;
64543;SDS011;50936;51.660;5.616;2023-02-08T03:32:58;20.20;;;10.55;;
64543;SDS011;50936;51.660;5.616;2023-02-08T03:35:58;25.17;;;11.32;;
64543;SDS011;50936;51.660;5.616;2023-02-08T03:38:42;23.40;;;11.02;;
64543;SDS011;50936;51.660;5.616;2023-02-08T03:41:18;28.40;;;11.07;;
64543;SDS011;50936;51.660;5.616;2023-02-08T03:46:37;25.00;;;10.13;;
64543;SDS011;50936;51.660;5.616;2023-02-08T03:49:14;23.85;;;10.93;;
64543;SDS011;50936;51.660;5.616;2023-02-08T03:51:47;28.35;;;11.50;;
64543;SDS011;50936;51.660;5.616;2023-02-08T03:54:19;23.30;;;10.38;;
64543;SDS011;50936;51.660;5.616;2023-02-08T03:57:00;24.75;;;10.65;;
64543;SDS011;50936;51.660;5.616;2023-02-08T03:59:39;24.20;;;11.32;;
64543;SDS011;50936;51.660;5.616;2023-02-08T04:02:16;27.92;;;11.50;;
64543;SDS011;50936;51.660;5.616;2023-02-08T04:04:47;23.42;;;10.88;;
64543;SDS011;50936;51.660;5.616;2023-02-08T04:07:17;24.25;;;11.95;;
64543;SDS011;50936;51.660;5.616;2023-02-08T04:09:45;25.75;;;11.13;;
64543;SDS011;50936;51.660;5.616;2023-02-08T04:12:12;22.77;;;10.10;;
64543;SDS011;50936;51.660;5.616;2023-02-08T04:14:39;25.27;;;10.50;;
64543;SDS011;50936;51.660;5.616;2023-02-08T04:17:06;23.38;;;10.65;;
64543;SDS011;50936;51.660;5.616;2023-02-08T04:19:33;25.10;;;10.57;;
64543;SDS011;50936;51.660;5.616;2023-02-08T04:22:00;23.90;;;10.88;;
64543;SDS011;50936;51.660;5.616;2023-02-08T04:24:27;22.30;;;10.85;;
64543;SDS011;50936;51.660;5.616;2023-02-08T04:26:54;24.85;;;11.07;;
64543;SDS011;50936;51.660;5.616;2023-02-08T04:29:21;24.67;;;11.18;;
64543;SDS011;50936;51.660;5.616;2023-02-08T04:31:48;26.23;;;11.25;;
64543;SDS011;50936;51.660;5.616;2023-02-08T04:34:15;25.33;;;10.60;;
64543;SDS011;50936;51.660;5.616;2023-02-08T04:36:42;19.38;;;10.07;;
64543;SDS011;50936;51.660;5.616;2023-02-08T04:39:08;24.73;;;10.60;;
64543;SDS011;50936;51.660;5.616;2023-02-08T04:41:35;20.75;;;10.10;;
64543;SDS011;50936;51.660;5.616;2023-02-08T04:44:02;28.35;;;10.88;;
64543;SDS011;50936;51.660;5.616;2023-02-08T04:46:29;22.35;;;10.25;;
64543;SDS011;50936;51.660;5.616;2023-02-08T04:48:56;21.27;;;10.18;;
64543;SDS011;50936;51.660;5.616;2023-02-08T04:51:24;21.60;;;9.68;;
64543;SDS011;50936;51.660;5.616;2023-02-08T04:53:51;24.38;;;9.75;;
64543;SDS011;50936;51.660;5.616;2023-02-08T04:56:18;19.40;;;9.57;;
64543;SDS011;50936;51.660;5.616;2023-02-08T04:58:44;24.23;;;10.68;;
64543;SDS011;50936;51.660;5.616;2023-02-08T05:01:13;21.58;;;9.82;;
64543;SDS011;50936;51.660;5.616;2023-02-08T05:03:41;28.42;;;11.60;;
64543;SDS011;50936;51.660;5.616;2023-02-08T05:06:08;24.10;;;10.98;;
64543;SDS011;50936;51.660;5.616;2023-02-08T05:08:35;24.00;;;10.25;;
64543;SDS011;50936;51.660;5.616;2023-02-08T05:11:02;23.40;;;10.13;;
64543;SDS011;50936;51.660;5.616;2023-02-08T05:13:29;22.42;;;10.30;;
64543;SDS011;50936;51.660;5.616;2023-02-08T05:15:56;24.35;;;10.52;;
64543;SDS011;50936;51.660;5.616;2023-02-08T05:18:23;23.08;;;10.50;;
64543;SDS011;50936;51.660;5.616;2023-02-08T05:20:57;24.33;;;11.63;;
64543;SDS011;50936;51.660;5.616;2023-02-08T05:23:26;20.20;;;9.60;;
64543;SDS011;50936;51.660;5.616;2023-02-08T05:25:53;22.23;;;10.45;;
64543;SDS011;50936;51.660;5.616;2023-02-08T05:28:20;24.38;;;11.35;;
64543;SDS011;50936;51.660;5.616;2023-02-08T05:30:47;25.23;;;10.52;;
64543;SDS011;50936;51.660;5.616;2023-02-08T05:33:15;22.52;;;10.18;;
64543;SDS011;50936;51.660;5.616;2023-02-08T05:35:43;25.67;;;11.07;;
64543;SDS011;50936;51.660;5.616;2023-02-08T05:38:11;24.45;;;10.82;;
64543;SDS011;50936;51.660;5.616;2023-02-08T05:40:38;24.63;;;10.77;;
64543;SDS011;50936;51.660;5.616;2023-02-08T05:43:05;17.60;;;8.20;;
64543;SDS011;50936;51.660;5.616;2023-02-08T05:45:32;18.75;;;8.88;;
64543;SDS011;50936;51.660;5.616;2023-02-08T05:47:59;23.55;;;9.88;;
64543;SDS011;50936;51.660;5.616;2023-02-08T05:50:26;23.42;;;10.43;;
64543;SDS011;50936;51.660;5.616;2023-02-08T05:52:53;18.65;;;9.73;;
64543;SDS011;50936;51.660;5.616;2023-02-08T05:55:19;28.83;;;11.13;;
64543;SDS011;50936;51.660;5.616;2023-02-08T05:57:46;24.77;;;10.98;;
64543;SDS011;50936;51.660;5.616;2023-02-08T06:00:13;24.25;;;10.63;;
64543;SDS011;50936;51.660;5.616;2023-02-08T06:02:44;23.90;;;10.70;;
64543;SDS011;50936;51.660;5.616;2023-02-08T06:05:11;23.58;;;8.90;;
64543;SDS011;50936;51.660;5.616;2023-02-08T06:07:38;24.50;;;11.02;;
64543;SDS011;50936;51.660;5.616;2023-02-08T06:10:05;27.95;;;11.57;;
64543;SDS011;50936;51.660;5.616;2023-02-08T06:12:32;18.83;;;8.75;;
64543;SDS011;50936;51.660;5.616;2023-02-08T06:14:59;25.42;;;10.73;;
64543;SDS011;50936;51.660;5.616;2023-02-08T06:17:26;25.55;;;9.68;;
64543;SDS011;50936;51.660;5.616;2023-02-08T06:19:57;13.70;;;6.40;;
64543;SDS011;50936;51.660;5.616;2023-02-08T06:22:24;20.67;;;8.55;;
64543;SDS011;50936;51.660;5.616;2023-02-08T06:24:51;17.00;;;6.28;;
64543;SDS011;50936;51.660;5.616;2023-02-08T06:27:18;13.82;;;6.32;;
64543;SDS011;50936;51.660;5.616;2023-02-08T06:29:45;12.57;;;6.30;;
64543;SDS011;50936;51.660;5.616;2023-02-08T06:32:12;22.90;;;9.77;;
64543;SDS011;50936;51.660;5.616;2023-02-08T06:34:39;21.70;;;10.60;;
64543;SDS011;50936;51.660;5.616;2023-02-08T06:37:06;21.83;;;9.45;;
64543;SDS011;50936;51.660;5.616;2023-02-08T06:39:33;22.08;;;8.98;;
64543;SDS011;50936;51.660;5.616;2023-02-08T06:41:59;16.55;;;6.55;;
64543;SDS011;50936;51.660;5.616;2023-02-08T06:44:26;21.67;;;9.05;;
64543;SDS011;50936;51.660;5.616;2023-02-08T06:46:53;17.88;;;8.15;;
64543;SDS011;50936;51.660;5.616;2023-02-08T06:49:20;18.90;;;8.57;;
64543;SDS011;50936;51.660;5.616;2023-02-08T06:51:47;17.98;;;8.07;;
64543;SDS011;50936;51.660;5.616;2023-02-08T06:54:14;16.35;;;7.15;;
64543;SDS011;50936;51.660;5.616;2023-02-08T06:56:41;26.20;;;10.23;;
64543;SDS011;50936;51.660;5.616;2023-02-08T06:59:08;24.60;;;10.35;;
64543;SDS011;50936;51.660;5.616;2023-02-08T07:01:35;20.58;;;8.55;;
64543;SDS011;50936;51.660;5.616;2023-02-08T07:04:03;19.90;;;8.95;;
64543;SDS011;50936;51.660;5.616;2023-02-08T07:06:30;21.08;;;8.95;;
64543;SDS011;50936;51.660;5.616;2023-02-08T07:08:57;21.08;;;9.68;;
64543;SDS011;50936;51.660;5.616;2023-02-08T07:11:24;21.45;;;8.35;;
64543;SDS011;50936;51.660;5.616;2023-02-08T07:13:51;28.80;;;10.75;;
64543;SDS011;50936;51.660;5.616;2023-02-08T07:16:19;18.58;;;8.43;;
64543;SDS011;50936;51.660;5.616;2023-02-08T07:18:46;21.70;;;9.50;;
64543;SDS011;50936;51.660;5.616;2023-02-08T07:21:13;23.90;;;10.73;;
64543;SDS011;50936;51.660;5.616;2023-02-08T07:23:41;22.73;;;10.18;;
64543;SDS011;50936;51.660;5.616;2023-02-08T07:26:09;11.60;;;5.72;;
64543;SDS011;50936;51.660;5.616;2023-02-08T07:28:40;22.65;;;9.68;;
64543;SDS011;50936;51.660;5.616;2023-02-08T07:31:08;20.15;;;7.88;;
64543;SDS011;50936;51.660;5.616;2023-02-08T07:33:38;24.65;;;10.18;;
64543;SDS011;50936;51.660;5.616;2023-02-08T07:36:06;17.55;;;7.00;;
64543;SDS011;50936;51.660;5.616;2023-02-08T07:38:34;17.52;;;8.73;;
64543;SDS011;50936;51.660;5.616;2023-02-08T07:41:09;20.40;;;9.38;;
64543;SDS011;50936;51.660;5.616;2023-02-08T07:43:39;15.77;;;7.07;;
64543;SDS011;50936;51.660;5.616;2023-02-08T07:46:13;14.85;;;7.53;;
64543;SDS011;50936;51.660;5.616;2023-02-08T07:48:46;19.20;;;8.65;;
64543;SDS011;50936;51.660;5.616;2023-02-08T07:51:15;17.15;;;7.38;;
64543;SDS011;50936;51.660;5.616;2023-02-08T07:53:42;19.33;;;8.02;;
64543;SDS011;50936;51.660;5.616;2023-02-08T07:56:09;17.67;;;7.55;;
64543;SDS011;50936;51.660;5.616;2023-02-08T07:58:36;13.65;;;5.90;;
64543;SDS011;50936;51.660;5.616;2023-02-08T08:01:03;16.10;;;7.30;;
64543;SDS011;50936;51.660;5.616;2023-02-08T08:03:46;23.80;;;9.02;;
64543;SDS011;50936;51.660;5.616;2023-02-08T08:06:14;16.55;;;8.05;;
64543;SDS011;50936;51.660;5.616;2023-02-08T08:08:40;17.42;;;8.98;;
64543;SDS011;50936;51.660;5.616;2023-02-08T08:11:10;19.35;;;9.10;;
64543;SDS011;50936;51.660;5.616;2023-02-08T08:13:36;22.02;;;9.68;;
64543;SDS011;50936;51.660;5.616;2023-02-08T08:16:03;24.23;;;8.93;;
64543;SDS011;50936;51.660;5.616;2023-02-08T08:18:31;15.55;;;7.95;;
64543;SDS011;50936;51.660;5.616;2023-02-08T08:20:58;20.20;;;9.65;;
64543;SDS011;50936;51.660;5.616;2023-02-08T08:23:24;22.15;;;10.07;;
64543;SDS011;50936;51.660;5.616;2023-02-08T08:25:54;24.27;;;10.23;;
64543;SDS011;50936;51.660;5.616;2023-02-08T08:28:21;26.10;;;9.13;;
64543;SDS011;50936;51.660;5.616;2023-02-08T08:30:48;25.77;;;9.98;;
64543;SDS011;50936;51.660;5.616;2023-02-08T08:33:15;16.20;;;8.07;;
64543;SDS011;50936;51.660;5.616;2023-02-08T08:35:42;15.35;;;7.18;;
64543;SDS011;50936;51.660;5.616;2023-02-08T08:38:12;29.52;;;10.05;;
64543;SDS011;50936;51.660;5.616;2023-02-08T08:40:39;15.52;;;8.20;;
64543;SDS011;50936;51.660;5.616;2023-02-08T08:43:06;22.67;;;10.43;;
64543;SDS011;50936;51.660;5.616;2023-02-08T08:45:33;19.75;;;9.48;;
64543;SDS011;50936;51.660;5.616;2023-02-08T08:48:04;18.92;;;8.85;;
64543;SDS011;50936;51.660;5.616;2023-02-08T08:50:31;23.77;;;10.77;;
64543;SDS011;50936;51.660;5.616;2023-02-08T08:52:58;27.80;;;10.60;;
64543;SDS011;50936;51.660;5.616;2023-02-08T08:55:25;14.02;;;6.97;;
64543;SDS011;50936;51.660;5.616;2023-02-08T08:57:53;22.65;;;9.00;;
64543;SDS011;50936;51.660;5.616;2023-02-08T09:00:20;21.90;;;10.82;;
64543;SDS011;50936;51.660;5.616;2023-02-08T09:02:48;20.70;;;10.65;;
64543;SDS011;50936;51.660;5.616;2023-02-08T09:05:15;23.02;;;9.90;;
64543;SDS011;50936;51.660;5.616;2023-02-08T09:07:42;27.10;;;11.93;;
64543;SDS011;50936;51.660;5.616;2023-02-08T09:10:08;21.88;;;10.02;;
64543;SDS011;50936;51.660;5.616;2023-02-08T09:12:35;27.27;;;10.63;;
64543;SDS011;50936;51.660;5.616;2023-02-08T09:15:02;25.52;;;11.52;;
64543;SDS011;50936;51.660;5.616;2023-02-08T09:17:30;19.48;;;7.55;;
64543;SDS011;50936;51.660;5.616;2023-02-08T09:19:57;24.45;;;10.68;;
64543;SDS011;50936;51.660;5.616;2023-02-08T09:22:24;15.77;;;7.07;;
64543;SDS011;50936;51.660;5.616;2023-02-08T09:24:51;28.55;;;11.27;;
64543;SDS011;50936;51.660;5.616;2023-02-08T09:27:19;28.83;;;11.90;;
64543;SDS011;50936;51.660;5.616;2023-02-08T09:29:46;26.33;;;9.32;;
64543;SDS011;50936;51.660;5.616;2023-02-08T09:32:13;18.45;;;9.05;;
64543;SDS011;50936;51.660;5.616;2023-02-08T09:34:39;22.50;;;10.02;;
64543;SDS011;50936;51.660;5.616;2023-02-08T09:37:06;26.23;;;10.88;;
64543;SDS011;50936;51.660;5.616;2023-02-08T09:39:33;21.33;;;10.40;;
64543;SDS011;50936;51.660;5.616;2023-02-08T09:42:21;24.30;;;11.95;;
64543;SDS011;50936;51.660;5.616;2023-02-08T09:48:25;19.92;;;8.63;;
64543;SDS011;50936;51.660;5.616;2023-02-08T09:50:57;16.63;;;8.50;;
64543;SDS011;50936;51.660;5.616;2023-02-08T09:53:38;22.42;;;10.70;;
64543;SDS011;50936;51.660;5.616;2023-02-08T09:56:13;25.88;;;11.13;;
64543;SDS011;50936;51.660;5.616;2023-02-08T09:58:45;15.40;;;6.82;;
64543;SDS011;50936;51.660;5.616;2023-02-08T10:01:18;20.33;;;9.65;;
64543;SDS011;50936;51.660;5.616;2023-02-08T10:03:51;21.23;;;10.55;;
64543;SDS011;50936;51.660;5.616;2023-02-08T10:06:24;22.52;;;9.70;;
64543;SDS011;50936;51.660;5.616;2023-02-08T10:08:51;25.05;;;10.70;;
64543;SDS011;50936;51.660;5.616;2023-02-08T10:14:30;24.90;;;10.20;;
64543;SDS011;50936;51.660;5.616;2023-02-08T10:17:14;20.60;;;10.25;;
64543;SDS011;50936;51.660;5.616;2023-02-08T10:35:08;22.08;;;10.68;;
64543;SDS011;50936;51.660;5.616;2023-02-08T10:37:39;23.60;;;10.93;;
64543;SDS011;50936;51.660;5.616;2023-02-08T10:43:38;17.58;;;9.32;;
64543;SDS011;50936;51.660;5.616;2023-02-08T10:46:00;21.27;;;10.10;;
64543;SDS011;50936;51.660;5.616;2023-02-08T10:49:00;16.98;;;9.10;;
64543;SDS011;50936;51.660;5.616;2023-02-08T10:51:47;19.27;;;9.15;;
64543;SDS011;50936;51.660;5.616;2023-02-08T10:54:15;20.60;;;9.98;;
64543;SDS011;50936;51.660;5.616;2023-02-08T11:02:00;19.30;;;8.90;;
64543;SDS011;50936;51.660;5.616;2023-02-08T11:04:27;17.55;;;9.23;;
64543;SDS011;50936;51.660;5.616;2023-02-08T11:06:54;14.63;;;7.63;;
64543;SDS011;50936;51.660;5.616;2023-02-08T11:11:57;18.77;;;9.95;;
64543;SDS011;50936;51.660;5.616;2023-02-08T11:14:38;19.80;;;9.02;;
64543;SDS011;50936;51.660;5.616;2023-02-08T11:19:59;19.40;;;9.52;;
64543;SDS011;50936;51.660;5.616;2023-02-08T11:22:26;19.35;;;9.38;;
64543;SDS011;50936;51.660;5.616;2023-02-08T11:25:01;18.55;;;8.93;;
64543;SDS011;50936;51.660;5.616;2023-02-08T11:27:34;21.83;;;9.70;;
64543;SDS011;50936;51.660;5.616;2023-02-08T11:32:41;18.73;;;9.23;;
64543;SDS011;50936;51.660;5.616;2023-02-08T11:35:18;19.80;;;9.70;;
64543;SDS011;50936;51.660;5.616;2023-02-08T11:37:52;19.27;;;9.70;;
64543;SDS011;50936;51.660;5.616;2023-02-08T11:43:19;20.88;;;9.13;;
64543;SDS011;50936;51.660;5.616;2023-02-08T11:45:50;19.65;;;9.55;;
64543;SDS011;50936;51.660;5.616;2023-02-08T11:48:34;16.88;;;8.75;;
64543;SDS011;50936;51.660;5.616;2023-02-08T11:51:11;21.33;;;9.30;;
64543;SDS011;50936;51.660;5.616;2023-02-08T11:53:50;17.65;;;8.82;;
64543;SDS011;50936;51.660;5.616;2023-02-08T11:58:56;17.42;;;8.35;;
64543;SDS011;50936;51.660;5.616;2023-02-08T12:01:47;13.95;;;7.88;;
64543;SDS011;50936;51.660;5.616;2023-02-08T12:04:15;12.32;;;7.68;;
64543;SDS011;50936;51.660;5.616;2023-02-08T12:07:01;14.10;;;7.07;;
64543;SDS011;50936;51.660;5.616;2023-02-08T12:12:39;13.65;;;6.97;;
64543;SDS011;50936;51.660;5.616;2023-02-08T12:15:40;13.20;;;6.45;;
64543;SDS011;50936;51.660;5.616;2023-02-08T12:21:42;13.27;;;7.18;;
64543;SDS011;50936;51.660;5.616;2023-02-08T12:30:24;10.25;;;5.50;;
64543;SDS011;50936;51.660;5.616;2023-02-08T12:36:11;6.97;;;4.28;;
64543;SDS011;50936;51.660;5.616;2023-02-08T12:42:32;7.55;;;3.55;;
64543;SDS011;50936;51.660;5.616;2023-02-08T12:48:11;8.70;;;3.72;;
64543;SDS011;50936;51.660;5.616;2023-02-08T12:50:49;7.85;;;4.00;;
64543;SDS011;50936;51.660;5.616;2023-02-08T12:53:37;7.25;;;3.97;;
64543;SDS011;50936;51.660;5.616;2023-02-08T12:56:15;8.98;;;3.80;;
64543;SDS011;50936;51.660;5.616;2023-02-08T12:58:56;6.82;;;3.75;;
64543;SDS011;50936;51.660;5.616;2023-02-08T13:01:42;9.38;;;4.53;;
64543;SDS011;50936;51.660;5.616;2023-02-08T13:04:21;8.90;;;4.65;;
64543;SDS011;50936;51.660;5.616;2023-02-08T13:06:57;8.07;;;3.90;;
64543;SDS011;50936;51.660;5.616;2023-02-08T13:12:29;8.10;;;4.10;;
64543;SDS011;50936;51.660;5.616;2023-02-08T13:18:03;10.43;;;5.32;;
64543;SDS011;50936;51.660;5.616;2023-02-08T13:23:35;8.85;;;5.13;;
64543;SDS011;50936;51.660;5.616;2023-02-08T13:26:21;9.95;;;5.18;;
64543;SDS011;50936;51.660;5.616;2023-02-08T13:28:54;9.82;;;5.20;;
64543;SDS011;50936;51.660;5.616;2023-02-08T13:31:43;8.18;;;4.53;;
64543;SDS011;50936;51.660;5.616;2023-02-08T13:34:30;9.13;;;4.97;;
64543;SDS011;50936;51.660;5.616;2023-02-08T13:37:16;7.57;;;4.28;;
64543;SDS011;50936;51.660;5.616;2023-02-08T13:42:48;9.93;;;5.10;;
64543;SDS011;50936;51.660;5.616;2023-02-08T13:45:27;11.70;;;4.70;;
64543;SDS011;50936;51.660;5.616;2023-02-08T13:48:06;10.65;;;4.75;;
64543;SDS011;50936;51.660;5.616;2023-02-08T13:53:06;9.43;;;4.75;;
64543;SDS011;50936;51.660;5.616;2023-02-08T13:55:39;8.80;;;4.30;;
64543;SDS011;50936;51.660;5.616;2023-02-08T14:01:19;7.60;;;3.97;;
64543;SDS011;50936;51.660;5.616;2023-02-08T14:09:11;11.27;;;4.20;;
64543;SDS011;50936;51.660;5.616;2023-02-08T14:12:00;8.93;;;4.43;;
64543;SDS011;50936;51.660;5.616;2023-02-08T14:14:38;6.57;;;4.25;;
64543;SDS011;50936;51.660;5.616;2023-02-08T14:19:56;10.50;;;4.57;;
64543;SDS011;50936;51.660;5.616;2023-02-08T14:22:29;9.27;;;3.80;;
64543;SDS011;50936;51.660;5.616;2023-02-08T14:25:05;8.00;;;4.18;;
64543;SDS011;50936;51.660;5.616;2023-02-08T14:28:04;8.93;;;3.85;;
64543;SDS011;50936;51.660;5.616;2023-02-08T14:30:34;8.45;;;4.30;;
64543;SDS011;50936;51.660;5.616;2023-02-08T14:35:34;9.38;;;4.05;;
64543;SDS011;50936;51.660;5.616;2023-02-08T14:40:50;6.93;;;3.60;;
64543;SDS011;50936;51.660;5.616;2023-02-08T14:45:56;7.75;;;3.90;;
64543;SDS011;50936;51.660;5.616;2023-02-08T14:48:45;8.88;;;4.70;;
64543;SDS011;50936;51.660;5.616;2023-02-08T14:51:20;9.63;;;4.55;;
64543;SDS011;50936;51.660;5.616;2023-02-08T14:53:57;8.65;;;4.03;;
64543;SDS011;50936;51.660;5.616;2023-02-08T14:56:45;8.52;;;4.95;;
64543;SDS011;50936;51.660;5.616;2023-02-08T14:59:22;9.13;;;4.10;;
64543;SDS011;50936;51.660;5.616;2023-02-08T15:01:58;8.73;;;4.65;;
64543;SDS011;50936;51.660;5.616;2023-02-08T15:04:41;7.72;;;4.30;;
64543;SDS011;50936;51.660;5.616;2023-02-08T15:10:16;9.57;;;4.80;;
64543;SDS011;50936;51.660;5.616;2023-02-08T15:12:53;7.03;;;3.88;;
64543;SDS011;50936;51.660;5.616;2023-02-08T15:15:30;8.07;;;4.47;;
64543;SDS011;50936;51.660;5.616;2023-02-08T15:18:15;7.72;;;5.10;;
64543;SDS011;50936;51.660;5.616;2023-02-08T15:21:05;8.57;;;4.28;;
64543;SDS011;50936;51.660;5.616;2023-02-08T15:23:42;8.10;;;4.10;;
64543;SDS011;50936;51.660;5.616;2023-02-08T15:26:31;7.25;;;3.65;;
64543;SDS011;50936;51.660;5.616;2023-02-08T15:28:58;11.15;;;3.92;;
64543;SDS011;50936;51.660;5.616;2023-02-08T15:31:28;7.13;;;3.72;;
64543;SDS011;50936;51.660;5.616;2023-02-08T15:33:59;10.68;;;4.78;;
64543;SDS011;50936;51.660;5.616;2023-02-08T15:36:29;9.73;;;4.75;;
64543;SDS011;50936;51.660;5.616;2023-02-08T15:39:09;7.68;;;4.47;;
64543;SDS011;50936;51.660;5.616;2023-02-08T15:41:49;9.15;;;4.53;;
64543;SDS011;50936;51.660;5.616;2023-02-08T15:44:17;9.70;;;4.35;;
64543;SDS011;50936;51.660;5.616;2023-02-08T15:46:49;7.75;;;3.95;;
64543;SDS011;50936;51.660;5.616;2023-02-08T15:49:26;7.20;;;3.35;;
64543;SDS011;50936;51.660;5.616;2023-02-08T15:52:00;8.45;;;3.05;;
64543;SDS011;50936;51.660;5.616;2023-02-08T15:54:30;7.25;;;3.00;;
64543;SDS011;50936;51.660;5.616;2023-02-08T15:57:01;7.63;;;3.78;;
64543;SDS011;50936;51.660;5.616;2023-02-08T15:59:36;6.93;;;3.53;;
64543;SDS011;50936;51.660;5.616;2023-02-08T16:04:47;4.72;;;2.70;;
64543;SDS011;50936;51.660;5.616;2023-02-08T16:10:06;7.43;;;3.38;;
64543;SDS011;50936;51.660;5.616;2023-02-08T16:12:48;6.95;;;3.05;;
64543;SDS011;50936;51.660;5.616;2023-02-08T16:15:40;9.40;;;4.30;;
64543;SDS011;50936;51.660;5.616;2023-02-08T16:20:57;12.98;;;4.35;;
64543;SDS011;50936;51.660;5.616;2023-02-08T16:23:27;9.60;;;4.22;;
64543;SDS011;50936;51.660;5.616;2023-02-08T16:26:04;14.13;;;6.38;;
64543;SDS011;50936;51.660;5.616;2023-02-08T16:28:55;11.07;;;5.25;;
64543;SDS011;50936;51.660;5.616;2023-02-08T16:31:28;9.68;;;4.35;;
64543;SDS011;50936;51.660;5.616;2023-02-08T16:33:59;10.95;;;4.75;;
64543;SDS011;50936;51.660;5.616;2023-02-08T16:36:34;8.70;;;4.10;;
64543;SDS011;50936;51.660;5.616;2023-02-08T16:39:52;9.35;;;4.57;;
64543;SDS011;50936;51.660;5.616;2023-02-08T16:47:35;11.85;;;4.78;;
64543;SDS011;50936;51.660;5.616;2023-02-08T16:50:05;10.02;;;4.78;;
64543;SDS011;50936;51.660;5.616;2023-02-08T16:52:35;11.07;;;4.72;;
64543;SDS011;50936;51.660;5.616;2023-02-08T16:55:03;9.27;;;4.85;;
64543;SDS011;50936;51.660;5.616;2023-02-08T16:57:41;10.38;;;5.18;;
64543;SDS011;50936;51.660;5.616;2023-02-08T17:02:47;9.68;;;5.20;;
64543;SDS011;50936;51.660;5.616;2023-02-08T17:05:15;10.18;;;4.40;;
64543;SDS011;50936;51.660;5.616;2023-02-08T17:07:44;7.00;;;3.65;;
64543;SDS011;50936;51.660;5.616;2023-02-08T17:10:20;9.93;;;4.50;;
64543;SDS011;50936;51.660;5.616;2023-02-08T17:12:57;8.15;;;4.32;;
64543;SDS011;50936;51.660;5.616;2023-02-08T17:15:46;7.90;;;4.07;;
64543;SDS011;50936;51.660;5.616;2023-02-08T17:18:16;12.85;;;4.50;;
64543;SDS011;50936;51.660;5.616;2023-02-08T17:20:43;15.73;;;5.40;;
64543;SDS011;50936;51.660;5.616;2023-02-08T17:23:12;14.50;;;5.35;;
64543;SDS011;50936;51.660;5.616;2023-02-08T17:25:41;12.40;;;5.22;;
64543;SDS011;50936;51.660;5.616;2023-02-08T17:28:13;15.93;;;7.20;;
64543;SDS011;50936;51.660;5.616;2023-02-08T17:30:45;28.48;;;9.70;;
64543;SDS011;50936;51.660;5.616;2023-02-08T17:33:14;13.88;;;6.57;;